KBQK/BQK METAR and TAF weather

Enter ICAO airport designator
Station Type Date Time Source
KBQK METAR 2020/06/06 15:35 UTC NOAA

KBQK 061535Z AUTO 23008KT 10SM OVC110 27/22 A3006 RMK AO2 T02660218


Station Type Date Time Source
KBQK Decoded METAR 2020/06/06 15:35 UTC NOAA

Brunswick / Glynco, GA, United States (KBQK) 31-15N 081-28W
Jun 06, 2020 - 11:35 AM EDT / 2020.06.06 1535 UTC
Wind: from the SW (230 degrees) at 9 MPH (8 KT):0
Visibility: 10 mile(s):0
Sky conditions: overcast
Temperature: 79.9 F (26.6 C)
Dew Point: 71.2 F (21.8 C)
Relative Humidity: 74%
Pressure (altimeter): 30.06 in. Hg (1017 hPa)
ob: KBQK 061535Z AUTO 23008KT 10SM OVC110 27/22 A3006 RMK AO2 T02660218
cycle: 15

Station Type Date Time Source
KBQK TAF UTC NOAA

Error!

Example: see airport list